sensor_id;sensor_type;location;lat;lon;timestamp;pressure;altitude;pressure_sealevel;temperature;humidity
13593;BME280;6867;50.998;4.250;2022-08-19T00:00:48;101181.38;;;20.35;79.46
13593;BME280;6867;50.998;4.250;2022-08-19T00:03:15;101167.25;;;20.43;79.11
13593;BME280;6867;50.998;4.250;2022-08-19T00:05:43;101176.59;;;20.52;78.96
13593;BME280;6867;50.998;4.250;2022-08-19T00:08:10;101171.22;;;20.62;78.72
13593;BME280;6867;50.998;4.250;2022-08-19T00:10:37;101168.81;;;20.76;78.73
13593;BME280;6867;50.998;4.250;2022-08-19T00:13:04;101172.66;;;20.75;78.44
13593;BME280;6867;50.998;4.250;2022-08-19T00:15:31;101171.53;;;20.71;77.97
13593;BME280;6867;50.998;4.250;2022-08-19T00:17:57;101185.69;;;20.63;78.53
13593;BME280;6867;50.998;4.250;2022-08-19T00:20:24;101182.16;;;20.68;78.58
13593;BME280;6867;50.998;4.250;2022-08-19T00:22:53;101187.31;;;20.64;78.49
13593;BME280;6867;50.998;4.250;2022-08-19T00:25:21;101190.53;;;20.56;78.74
13593;BME280;6867;50.998;4.250;2022-08-19T00:27:48;101185.06;;;20.51;78.78
13593;BME280;6867;50.998;4.250;2022-08-19T00:30:15;101184.41;;;20.38;78.78
13593;BME280;6867;50.998;4.250;2022-08-19T00:32:42;101192.56;;;20.33;79.56
13593;BME280;6867;50.998;4.250;2022-08-19T00:35:09;101183.00;;;20.31;79.50
13593;BME280;6867;50.998;4.250;2022-08-19T00:37:37;101179.69;;;20.24;79.82
13593;BME280;6867;50.998;4.250;2022-08-19T00:40:11;101173.91;;;20.15;79.63
13593;BME280;6867;50.998;4.250;2022-08-19T00:42:39;101185.53;;;20.05;80.27
13593;BME280;6867;50.998;4.250;2022-08-19T00:45:10;101177.63;;;20.04;79.97
13593;BME280;6867;50.998;4.250;2022-08-19T00:47:38;101179.78;;;20.02;79.83
13593;BME280;6867;50.998;4.250;2022-08-19T00:50:08;101174.28;;;19.97;79.79
13593;BME280;6867;50.998;4.250;2022-08-19T00:52:39;101174.03;;;19.98;79.68
13593;BME280;6867;50.998;4.250;2022-08-19T00:55:14;101165.00;;;19.98;79.71
13593;BME280;6867;50.998;4.250;2022-08-19T00:57:44;101177.25;;;19.90;80.14
13593;BME280;6867;50.998;4.250;2022-08-19T01:00:16;101171.50;;;19.86;80.16
13593;BME280;6867;50.998;4.250;2022-08-19T01:02:43;101176.63;;;19.83;80.45
13593;BME280;6867;50.998;4.250;2022-08-19T01:05:12;101176.53;;;19.73;80.67
13593;BME280;6867;50.998;4.250;2022-08-19T01:07:40;101176.75;;;19.66;80.79
13593;BME280;6867;50.998;4.250;2022-08-19T01:10:10;101180.81;;;19.63;80.81
13593;BME280;6867;50.998;4.250;2022-08-19T01:12:39;101184.28;;;19.59;81.32
13593;BME280;6867;50.998;4.250;2022-08-19T01:15:08;101184.22;;;19.54;81.26
13593;BME280;6867;50.998;4.250;2022-08-19T01:17:38;101189.38;;;19.50;81.22
13593;BME280;6867;50.998;4.250;2022-08-19T01:20:10;101190.97;;;19.46;81.55
13593;BME280;6867;50.998;4.250;2022-08-19T01:22:43;101198.81;;;19.42;81.71
13593;BME280;6867;50.998;4.250;2022-08-19T01:25:12;101184.59;;;19.35;81.77
13593;BME280;6867;50.998;4.250;2022-08-19T01:27:40;101190.28;;;19.34;81.71
13593;BME280;6867;50.998;4.250;2022-08-19T01:30:09;101192.19;;;19.33;81.96
13593;BME280;6867;50.998;4.250;2022-08-19T01:32:36;101195.38;;;19.25;81.88
13593;BME280;6867;50.998;4.250;2022-08-19T01:35:04;101191.81;;;19.25;82.20
13593;BME280;6867;50.998;4.250;2022-08-19T01:37:43;101185.06;;;19.27;81.93
13593;BME280;6867;50.998;4.250;2022-08-19T01:40:10;101183.91;;;19.23;81.87
13593;BME280;6867;50.998;4.250;2022-08-19T01:42:38;101186.56;;;19.18;82.15
13593;BME280;6867;50.998;4.250;2022-08-19T01:45:06;101193.69;;;19.19;82.25
13593;BME280;6867;50.998;4.250;2022-08-19T01:47:34;101188.47;;;19.17;82.36
13593;BME280;6867;50.998;4.250;2022-08-19T01:50:01;101194.03;;;19.06;82.60
13593;BME280;6867;50.998;4.250;2022-08-19T01:52:28;101185.59;;;19.02;82.84
13593;BME280;6867;50.998;4.250;2022-08-19T01:54:56;101197.84;;;19.05;83.13
13593;BME280;6867;50.998;4.250;2022-08-19T01:57:23;101195.56;;;18.97;82.72
13593;BME280;6867;50.998;4.250;2022-08-19T01:59:51;101185.94;;;18.89;82.33
13593;BME280;6867;50.998;4.250;2022-08-19T02:02:18;101183.09;;;18.79;82.43
13593;BME280;6867;50.998;4.250;2022-08-19T02:04:44;101186.13;;;18.82;82.09
13593;BME280;6867;50.998;4.250;2022-08-19T02:07:12;101194.31;;;18.82;82.25
13593;BME280;6867;50.998;4.250;2022-08-19T02:09:39;101187.50;;;18.85;82.47
13593;BME280;6867;50.998;4.250;2022-08-19T02:12:07;101196.59;;;18.90;82.74
13593;BME280;6867;50.998;4.250;2022-08-19T02:14:35;101200.88;;;18.86;83.05
13593;BME280;6867;50.998;4.250;2022-08-19T02:17:02;101193.44;;;18.99;83.07
13593;BME280;6867;50.998;4.250;2022-08-19T02:19:29;101193.84;;;19.12;82.79
13593;BME280;6867;50.998;4.250;2022-08-19T02:21:57;101193.59;;;19.14;82.56
13593;BME280;6867;50.998;4.250;2022-08-19T02:24:24;101191.44;;;19.16;82.49
13593;BME280;6867;50.998;4.250;2022-08-19T02:26:50;101189.72;;;19.10;82.61
13593;BME280;6867;50.998;4.250;2022-08-19T02:29:19;101191.06;;;19.07;82.33
13593;BME280;6867;50.998;4.250;2022-08-19T02:31:46;101174.69;;;19.02;81.96
13593;BME280;6867;50.998;4.250;2022-08-19T02:34:13;101185.00;;;19.00;82.10
13593;BME280;6867;50.998;4.250;2022-08-19T02:36:40;101186.31;;;18.98;82.12
13593;BME280;6867;50.998;4.250;2022-08-19T02:39:06;101189.78;;;18.93;82.59
13593;BME280;6867;50.998;4.250;2022-08-19T02:41:33;101182.47;;;18.94;82.20
13593;BME280;6867;50.998;4.250;2022-08-19T02:44:01;101181.41;;;18.95;82.20
13593;BME280;6867;50.998;4.250;2022-08-19T02:46:32;101194.94;;;18.89;82.83
13593;BME280;6867;50.998;4.250;2022-08-19T02:49:03;101191.63;;;18.87;82.49
13593;BME280;6867;50.998;4.250;2022-08-19T02:51:32;101199.75;;;18.82;82.63
13593;BME280;6867;50.998;4.250;2022-08-19T02:53:59;101195.94;;;18.83;82.34
13593;BME280;6867;50.998;4.250;2022-08-19T02:56:27;101185.56;;;18.80;82.23
13593;BME280;6867;50.998;4.250;2022-08-19T02:58:53;101175.25;;;18.82;82.08
13593;BME280;6867;50.998;4.250;2022-08-19T03:01:22;101173.84;;;18.80;82.14
13593;BME280;6867;50.998;4.250;2022-08-19T03:03:51;101171.19;;;18.68;82.82
13593;BME280;6867;50.998;4.250;2022-08-19T03:06:18;101177.31;;;18.75;82.15
13593;BME280;6867;50.998;4.250;2022-08-19T03:08:45;101172.88;;;18.69;82.12
13593;BME280;6867;50.998;4.250;2022-08-19T03:11:15;101173.03;;;18.62;82.80
13593;BME280;6867;50.998;4.250;2022-08-19T03:13:42;101175.00;;;18.67;83.06
13593;BME280;6867;50.998;4.250;2022-08-19T03:16:10;101170.16;;;18.69;83.00
13593;BME280;6867;50.998;4.250;2022-08-19T03:18:37;101178.81;;;18.66;83.42
13593;BME280;6867;50.998;4.250;2022-08-19T03:21:06;101178.66;;;18.73;83.04
13593;BME280;6867;50.998;4.250;2022-08-19T03:23:32;101178.66;;;18.73;82.93
13593;BME280;6867;50.998;4.250;2022-08-19T03:26:04;101165.47;;;18.64;82.28
13593;BME280;6867;50.998;4.250;2022-08-19T03:28:31;101162.16;;;18.62;82.32
13593;BME280;6867;50.998;4.250;2022-08-19T03:31:01;101167.78;;;18.56;82.41
13593;BME280;6867;50.998;4.250;2022-08-19T03:33:29;101168.38;;;18.58;82.63
13593;BME280;6867;50.998;4.250;2022-08-19T03:36:01;101165.06;;;18.56;82.84
13593;BME280;6867;50.998;4.250;2022-08-19T03:38:30;101179.41;;;18.51;82.68
13593;BME280;6867;50.998;4.250;2022-08-19T03:40:57;101179.28;;;18.41;82.90
13593;BME280;6867;50.998;4.250;2022-08-19T03:43:24;101176.56;;;18.41;82.52
13593;BME280;6867;50.998;4.250;2022-08-19T03:46:00;101168.66;;;18.39;82.64
13593;BME280;6867;50.998;4.250;2022-08-19T03:48:29;101180.03;;;18.36;82.70
13593;BME280;6867;50.998;4.250;2022-08-19T03:50:56;101175.06;;;18.33;82.84
13593;BME280;6867;50.998;4.250;2022-08-19T03:53:24;101176.72;;;18.34;82.93
13593;BME280;6867;50.998;4.250;2022-08-19T03:55:53;101168.88;;;18.38;82.87
13593;BME280;6867;50.998;4.250;2022-08-19T03:58:20;101188.41;;;18.35;82.99
13593;BME280;6867;50.998;4.250;2022-08-19T04:00:46;101186.78;;;18.34;83.21
13593;BME280;6867;50.998;4.250;2022-08-19T04:03:13;101196.34;;;18.36;83.31
13593;BME280;6867;50.998;4.250;2022-08-19T04:05:40;101189.28;;;18.35;83.45
13593;BME280;6867;50.998;4.250;2022-08-19T04:08:06;101196.09;;;18.38;83.67
13593;BME280;6867;50.998;4.250;2022-08-19T04:10:35;101192.88;;;18.41;83.58
13593;BME280;6867;50.998;4.250;2022-08-19T04:13:04;101195.84;;;18.39;83.47
13593;BME280;6867;50.998;4.250;2022-08-19T04:15:32;101194.50;;;18.42;83.25
13593;BME280;6867;50.998;4.250;2022-08-19T04:18:05;101198.66;;;18.45;83.08
13593;BME280;6867;50.998;4.250;2022-08-19T04:20:33;101189.06;;;18.42;82.94
13593;BME280;6867;50.998;4.250;2022-08-19T04:23:04;101189.34;;;18.40;83.20
13593;BME280;6867;50.998;4.250;2022-08-19T04:25:35;101193.38;;;18.38;83.22
13593;BME280;6867;50.998;4.250;2022-08-19T04:28:04;101193.03;;;18.34;83.37
13593;BME280;6867;50.998;4.250;2022-08-19T04:30:36;101185.63;;;18.30;83.51
13593;BME280;6867;50.998;4.250;2022-08-19T04:33:03;101185.88;;;18.28;83.25
13593;BME280;6867;50.998;4.250;2022-08-19T04:35:35;101185.06;;;18.28;83.38
13593;BME280;6867;50.998;4.250;2022-08-19T04:38:02;101185.88;;;18.28;83.56
13593;BME280;6867;50.998;4.250;2022-08-19T04:40:29;101185.13;;;18.33;83.62
13593;BME280;6867;50.998;4.250;2022-08-19T04:43:14;101188.13;;;18.31;83.41
13593;BME280;6867;50.998;4.250;2022-08-19T04:45:42;101186.72;;;18.29;83.69
13593;BME280;6867;50.998;4.250;2022-08-19T04:48:09;101190.84;;;18.31;83.90
13593;BME280;6867;50.998;4.250;2022-08-19T04:50:36;101183.16;;;18.28;84.00
13593;BME280;6867;50.998;4.250;2022-08-19T04:53:06;101190.56;;;18.33;84.20
13593;BME280;6867;50.998;4.250;2022-08-19T04:55:33;101184.97;;;18.39;83.80
13593;BME280;6867;50.998;4.250;2022-08-19T04:58:01;101184.47;;;18.42;83.65
13593;BME280;6867;50.998;4.250;2022-08-19T05:00:29;101186.69;;;18.46;83.99
13593;BME280;6867;50.998;4.250;2022-08-19T05:02:56;101192.38;;;18.44;84.14
13593;BME280;6867;50.998;4.250;2022-08-19T05:05:23;101190.88;;;18.53;83.84
13593;BME280;6867;50.998;4.250;2022-08-19T05:07:49;101188.50;;;18.57;83.74
13593;BME280;6867;50.998;4.250;2022-08-19T05:10:16;101189.03;;;18.59;83.70
13593;BME280;6867;50.998;4.250;2022-08-19T05:12:43;101190.44;;;18.61;83.79
13593;BME280;6867;50.998;4.250;2022-08-19T05:15:10;101190.50;;;18.66;83.92
13593;BME280;6867;50.998;4.250;2022-08-19T05:17:39;101202.81;;;18.69;84.19
13593;BME280;6867;50.998;4.250;2022-08-19T05:20:26;101193.09;;;18.73;84.03
13593;BME280;6867;50.998;4.250;2022-08-19T05:23:07;101206.00;;;18.83;84.37
13593;BME280;6867;50.998;4.250;2022-08-19T05:25:33;101198.22;;;18.91;84.20
13593;BME280;6867;50.998;4.250;2022-08-19T05:28:00;101209.81;;;19.04;84.23
13593;BME280;6867;50.998;4.250;2022-08-19T05:30:26;101226.03;;;19.15;84.58
13593;BME280;6867;50.998;4.250;2022-08-19T05:32:55;101221.78;;;19.25;84.12
13593;BME280;6867;50.998;4.250;2022-08-19T05:35:21;101213.72;;;19.35;83.97
13593;BME280;6867;50.998;4.250;2022-08-19T05:37:49;101224.53;;;19.52;84.12
13593;BME280;6867;50.998;4.250;2022-08-19T05:40:16;101224.25;;;19.75;83.91
13593;BME280;6867;50.998;4.250;2022-08-19T05:42:42;101211.91;;;19.95;82.92
13593;BME280;6867;50.998;4.250;2022-08-19T05:45:10;101190.00;;;19.84;82.24
13593;BME280;6867;50.998;4.250;2022-08-19T05:47:36;101199.53;;;19.82;81.82
13593;BME280;6867;50.998;4.250;2022-08-19T05:50:05;101183.97;;;19.77;81.88
13593;BME280;6867;50.998;4.250;2022-08-19T05:52:32;101198.47;;;19.88;81.92
13593;BME280;6867;50.998;4.250;2022-08-19T05:55:03;101202.06;;;19.94;81.64
13593;BME280;6867;50.998;4.250;2022-08-19T05:57:30;101210.38;;;20.09;81.72
13593;BME280;6867;50.998;4.250;2022-08-19T05:59:57;101201.22;;;20.20;81.34
13593;BME280;6867;50.998;4.250;2022-08-19T06:02:25;101199.97;;;20.38;80.91
13593;BME280;6867;50.998;4.250;2022-08-19T06:04:52;101206.63;;;20.52;80.66
13593;BME280;6867;50.998;4.250;2022-08-19T06:07:20;101202.69;;;20.80;80.68
13593;BME280;6867;50.998;4.250;2022-08-19T06:09:47;101198.66;;;20.98;79.63
13593;BME280;6867;50.998;4.250;2022-08-19T06:12:14;101197.97;;;21.28;79.33
13593;BME280;6867;50.998;4.250;2022-08-19T06:14:40;101189.88;;;21.54;78.09
13593;BME280;6867;50.998;4.250;2022-08-19T06:17:07;101174.53;;;21.37;76.99
13593;BME280;6867;50.998;4.250;2022-08-19T06:19:34;101183.31;;;21.60;76.99
13593;BME280;6867;50.998;4.250;2022-08-19T06:22:02;101179.78;;;21.75;76.83
13593;BME280;6867;50.998;4.250;2022-08-19T06:24:30;101186.09;;;21.96;76.42
13593;BME280;6867;50.998;4.250;2022-08-19T06:27:00;101188.28;;;22.04;75.77
13593;BME280;6867;50.998;4.250;2022-08-19T06:29:28;101182.22;;;22.07;75.62
13593;BME280;6867;50.998;4.250;2022-08-19T06:31:56;101174.59;;;22.24;74.80
13593;BME280;6867;50.998;4.250;2022-08-19T06:34:24;101166.94;;;22.26;74.50
13593;BME280;6867;50.998;4.250;2022-08-19T06:36:52;101174.03;;;22.37;74.01
13593;BME280;6867;50.998;4.250;2022-08-19T06:39:22;101170.75;;;22.46;73.57
13593;BME280;6867;50.998;4.250;2022-08-19T06:41:53;101169.66;;;22.11;73.46
13593;BME280;6867;50.998;4.250;2022-08-19T06:44:23;101162.53;;;22.41;72.77
13593;BME280;6867;50.998;4.250;2022-08-19T06:46:50;101162.47;;;22.56;72.04
13593;BME280;6867;50.998;4.250;2022-08-19T06:49:17;101162.44;;;22.71;71.72
13593;BME280;6867;50.998;4.250;2022-08-19T06:51:45;101172.59;;;22.60;71.54
13593;BME280;6867;50.998;4.250;2022-08-19T06:54:13;101166.31;;;22.60;71.61
13593;BME280;6867;50.998;4.250;2022-08-19T06:56:40;101155.00;;;22.82;71.00
13593;BME280;6867;50.998;4.250;2022-08-19T06:59:12;101166.66;;;23.13;70.74
13593;BME280;6867;50.998;4.250;2022-08-19T07:01:42;101146.78;;;23.36;69.79
13593;BME280;6867;50.998;4.250;2022-08-19T07:04:11;101139.75;;;22.60;70.00
13593;BME280;6867;50.998;4.250;2022-08-19T07:06:37;101181.56;;;22.92;71.59
13593;BME280;6867;50.998;4.250;2022-08-19T07:09:10;101141.34;;;23.31;69.50
13593;BME280;6867;50.998;4.250;2022-08-19T07:11:38;101134.03;;;23.66;68.63
13593;BME280;6867;50.998;4.250;2022-08-19T07:14:05;101157.53;;;23.33;69.15
13593;BME280;6867;50.998;4.250;2022-08-19T07:16:34;101161.59;;;23.35;69.62
13593;BME280;6867;50.998;4.250;2022-08-19T07:19:01;101147.59;;;23.81;68.56
13593;BME280;6867;50.998;4.250;2022-08-19T07:21:28;101149.91;;;23.98;68.56
13593;BME280;6867;50.998;4.250;2022-08-19T07:23:56;101150.78;;;23.94;67.91
13593;BME280;6867;50.998;4.250;2022-08-19T07:26:27;101141.78;;;24.46;67.26
13593;BME280;6867;50.998;4.250;2022-08-19T07:28:54;101121.00;;;24.83;65.28
13593;BME280;6867;50.998;4.250;2022-08-19T07:31:23;101139.41;;;23.76;66.90
13593;BME280;6867;50.998;4.250;2022-08-19T07:33:53;101131.72;;;24.60;65.96
13593;BME280;6867;50.998;4.250;2022-08-19T07:36:23;101119.09;;;25.59;64.07
13593;BME280;6867;50.998;4.250;2022-08-19T07:38:51;101078.16;;;26.04;61.33
13593;BME280;6867;50.998;4.250;2022-08-19T07:41:20;101062.47;;;26.32;60.10
13593;BME280;6867;50.998;4.250;2022-08-19T07:43:48;101054.06;;;26.92;58.73
13593;BME280;6867;50.998;4.250;2022-08-19T07:46:17;101051.53;;;27.04;58.20
13593;BME280;6867;50.998;4.250;2022-08-19T07:48:47;101030.66;;;26.90;57.47
13593;BME280;6867;50.998;4.250;2022-08-19T07:51:18;101102.97;;;26.31;59.84
13593;BME280;6867;50.998;4.250;2022-08-19T07:53:46;101075.81;;;26.66;58.58
13593;BME280;6867;50.998;4.250;2022-08-19T07:56:14;101064.31;;;26.64;58.28
13593;BME280;6867;50.998;4.250;2022-08-19T07:58:43;101098.75;;;26.20;59.65
13593;BME280;6867;50.998;4.250;2022-08-19T08:01:13;101111.94;;;25.77;60.44
13593;BME280;6867;50.998;4.250;2022-08-19T08:03:40;101137.00;;;25.00;62.41
13593;BME280;6867;50.998;4.250;2022-08-19T08:06:26;101122.44;;;25.56;61.50
13593;BME280;6867;50.998;4.250;2022-08-19T08:09:11;101122.34;;;25.80;61.17
13593;BME280;6867;50.998;4.250;2022-08-19T08:11:47;101149.38;;;25.40;61.98
13593;BME280;6867;50.998;4.250;2022-08-19T08:14:24;101137.13;;;25.65;62.05
13593;BME280;6867;50.998;4.250;2022-08-19T08:16:52;101125.09;;;25.61;61.30
13593;BME280;6867;50.998;4.250;2022-08-19T08:19:21;101114.78;;;26.04;60.36
13593;BME280;6867;50.998;4.250;2022-08-19T08:21:50;101136.16;;;25.75;61.04
13593;BME280;6867;50.998;4.250;2022-08-19T08:24:18;101145.50;;;25.22;61.85
13593;BME280;6867;50.998;4.250;2022-08-19T08:26:45;101197.56;;;24.90;64.10
13593;BME280;6867;50.998;4.250;2022-08-19T08:29:12;101171.66;;;25.57;62.79
13593;BME280;6867;50.998;4.250;2022-08-19T08:31:43;101165.91;;;25.73;62.21
13593;BME280;6867;50.998;4.250;2022-08-19T08:34:11;101149.06;;;25.79;61.16
13593;BME280;6867;50.998;4.250;2022-08-19T08:36:39;101153.78;;;25.93;60.99
13593;BME280;6867;50.998;4.250;2022-08-19T08:39:08;101135.69;;;26.19;60.21
13593;BME280;6867;50.998;4.250;2022-08-19T08:41:41;101157.88;;;25.76;61.57
13593;BME280;6867;50.998;4.250;2022-08-19T08:44:15;101165.88;;;25.92;61.37
13593;BME280;6867;50.998;4.250;2022-08-19T08:46:47;101151.81;;;25.61;61.10
13593;BME280;6867;50.998;4.250;2022-08-19T08:49:23;101189.97;;;25.29;63.13
13593;BME280;6867;50.998;4.250;2022-08-19T08:51:52;101184.44;;;25.86;62.32
13593;BME280;6867;50.998;4.250;2022-08-19T08:54:24;101163.22;;;25.87;61.53
13593;BME280;6867;50.998;4.250;2022-08-19T08:56:53;101167.00;;;26.23;60.63
13593;BME280;6867;50.998;4.250;2022-08-19T08:59:21;101150.69;;;26.27;60.16
13593;BME280;6867;50.998;4.250;2022-08-19T09:01:49;101165.75;;;26.16;60.71
13593;BME280;6867;50.998;4.250;2022-08-19T09:04:16;101158.75;;;26.37;60.75
13593;BME280;6867;50.998;4.250;2022-08-19T09:06:48;101182.28;;;26.16;61.43
13593;BME280;6867;50.998;4.250;2022-08-19T09:09:21;101142.47;;;26.82;59.32
13593;BME280;6867;50.998;4.250;2022-08-19T09:12:02;101150.00;;;26.63;59.54
13593;BME280;6867;50.998;4.250;2022-08-19T09:14:36;101137.31;;;27.03;58.77
13593;BME280;6867;50.998;4.250;2022-08-19T09:17:07;101137.25;;;26.67;58.92
13593;BME280;6867;50.998;4.250;2022-08-19T09:19:35;101114.97;;;27.18;57.66
13593;BME280;6867;50.998;4.250;2022-08-19T09:22:02;101105.31;;;27.52;56.95
13593;BME280;6867;50.998;4.250;2022-08-19T09:24:30;101145.31;;;26.49;59.08
13593;BME280;6867;50.998;4.250;2022-08-19T09:26:58;101164.00;;;26.66;59.41
13593;BME280;6867;50.998;4.250;2022-08-19T09:29:25;101168.25;;;26.31;59.96
13593;BME280;6867;50.998;4.250;2022-08-19T09:31:51;101153.19;;;26.56;59.37
13593;BME280;6867;50.998;4.250;2022-08-19T09:34:18;101173.06;;;26.53;59.69
13593;BME280;6867;50.998;4.250;2022-08-19T09:36:45;101181.13;;;26.03;60.64
13593;BME280;6867;50.998;4.250;2022-08-19T09:39:12;101206.06;;;25.93;61.80
13593;BME280;6867;50.998;4.250;2022-08-19T09:41:39;101200.13;;;26.51;60.97
13593;BME280;6867;50.998;4.250;2022-08-19T09:44:07;101191.69;;;25.96;61.06
13593;BME280;6867;50.998;4.250;2022-08-19T09:46:34;101206.69;;;26.36;61.26
13593;BME280;6867;50.998;4.250;2022-08-19T09:49:01;101182.06;;;26.58;60.24
13593;BME280;6867;50.998;4.250;2022-08-19T09:51:29;101194.03;;;26.21;61.45
13593;BME280;6867;50.998;4.250;2022-08-19T09:53:59;101206.16;;;25.88;61.69
13593;BME280;6867;50.998;4.250;2022-08-19T09:56:27;101214.84;;;25.76;62.52
13593;BME280;6867;50.998;4.250;2022-08-19T09:58:57;101184.16;;;25.88;61.25
13593;BME280;6867;50.998;4.250;2022-08-19T10:01:28;101208.41;;;26.32;61.52
13593;BME280;6867;50.998;4.250;2022-08-19T10:03:57;101189.16;;;27.28;59.65
13593;BME280;6867;50.998;4.250;2022-08-19T10:06:26;101137.63;;;27.74;57.44
13593;BME280;6867;50.998;4.250;2022-08-19T10:08:54;101144.25;;;27.50;57.66
13593;BME280;6867;50.998;4.250;2022-08-19T10:11:21;101137.59;;;27.29;57.68
13593;BME280;6867;50.998;4.250;2022-08-19T10:13:48;101137.81;;;27.55;57.26
13593;BME280;6867;50.998;4.250;2022-08-19T10:16:17;101141.13;;;27.43;57.55
13593;BME280;6867;50.998;4.250;2022-08-19T10:18:46;101129.66;;;27.72;56.88
13593;BME280;6867;50.998;4.250;2022-08-19T10:21:16;101125.50;;;27.39;56.92
13593;BME280;6867;50.998;4.250;2022-08-19T10:23:47;101166.56;;;26.76;59.18
13593;BME280;6867;50.998;4.250;2022-08-19T10:26:17;101152.88;;;26.85;58.85
13593;BME280;6867;50.998;4.250;2022-08-19T10:28:45;101166.50;;;27.04;59.17
13593;BME280;6867;50.998;4.250;2022-08-19T10:31:14;101173.69;;;27.05;59.19
13593;BME280;6867;50.998;4.250;2022-08-19T10:33:43;101178.59;;;26.80;59.57
13593;BME280;6867;50.998;4.250;2022-08-19T10:36:13;101162.66;;;27.19;58.50
13593;BME280;6867;50.998;4.250;2022-08-19T10:38:42;101154.88;;;27.07;58.64
13593;BME280;6867;50.998;4.250;2022-08-19T10:41:12;101171.44;;;26.93;59.19
13593;BME280;6867;50.998;4.250;2022-08-19T10:43:39;101165.53;;;27.14;58.67
13593;BME280;6867;50.998;4.250;2022-08-19T10:46:07;101191.66;;;26.61;60.09
13593;BME280;6867;50.998;4.250;2022-08-19T10:48:34;101198.31;;;26.27;60.79
13593;BME280;6867;50.998;4.250;2022-08-19T10:51:02;101218.53;;;26.04;62.30
13593;BME280;6867;50.998;4.250;2022-08-19T10:53:48;101210.13;;;26.14;61.57
13593;BME280;6867;50.998;4.250;2022-08-19T10:56:14;101221.47;;;25.94;62.52
13593;BME280;6867;50.998;4.250;2022-08-19T10:58:59;101235.91;;;25.67;63.54
13593;BME280;6867;50.998;4.250;2022-08-19T11:01:29;101231.88;;;25.59;63.93
13593;BME280;6867;50.998;4.250;2022-08-19T11:03:56;101237.75;;;26.09;63.61
13593;BME280;6867;50.998;4.250;2022-08-19T11:06:23;101227.22;;;26.11;63.03
13593;BME280;6867;50.998;4.250;2022-08-19T11:08:52;101223.19;;;26.22;63.08
13593;BME280;6867;50.998;4.250;2022-08-19T11:11:20;101199.94;;;26.89;61.22
13593;BME280;6867;50.998;4.250;2022-08-19T11:13:47;101194.50;;;26.97;60.84
13593;BME280;6867;50.998;4.250;2022-08-19T11:16:17;101153.38;;;27.01;59.28
13593;BME280;6867;50.998;4.250;2022-08-19T11:18:45;101143.16;;;27.38;58.43
13593;BME280;6867;50.998;4.250;2022-08-19T11:21:15;101153.25;;;27.20;58.52
13593;BME280;6867;50.998;4.250;2022-08-19T11:23:43;101145.50;;;27.44;58.15
13593;BME280;6867;50.998;4.250;2022-08-19T11:26:12;101119.00;;;27.79;56.88
13593;BME280;6867;50.998;4.250;2022-08-19T11:28:39;101147.22;;;27.99;57.07
13593;BME280;6867;50.998;4.250;2022-08-19T11:31:10;101085.34;;;28.97;54.28
13593;BME280;6867;50.998;4.250;2022-08-19T11:33:37;101077.63;;;29.89;52.66
13593;BME280;6867;50.998;4.250;2022-08-19T11:36:04;101050.59;;;30.84;50.32
13593;BME280;6867;50.998;4.250;2022-08-19T11:38:31;101007.63;;;31.44;47.77
13593;BME280;6867;50.998;4.250;2022-08-19T11:40:59;101041.38;;;31.13;48.99
13593;BME280;6867;50.998;4.250;2022-08-19T11:43:28;101075.06;;;30.14;50.40
13593;BME280;6867;50.998;4.250;2022-08-19T11:45:56;101067.13;;;29.31;51.29
13593;BME280;6867;50.998;4.250;2022-08-19T11:48:23;101083.88;;;29.08;52.50
13593;BME280;6867;50.998;4.250;2022-08-19T11:50:51;101078.03;;;29.27;52.16
13593;BME280;6867;50.998;4.250;2022-08-19T11:53:20;101072.72;;;29.95;50.58
13593;BME280;6867;50.998;4.250;2022-08-19T11:55:47;101062.09;;;30.44;49.85
13593;BME280;6867;50.998;4.250;2022-08-19T11:58:15;101056.22;;;30.66;49.46
13593;BME280;6867;50.998;4.250;2022-08-19T12:00:44;101013.91;;;30.99;47.54
13593;BME280;6867;50.998;4.250;2022-08-19T12:03:12;101070.34;;;30.23;49.63
13593;BME280;6867;50.998;4.250;2022-08-19T12:05:39;101086.06;;;30.40;50.32
13593;BME280;6867;50.998;4.250;2022-08-19T12:08:06;101078.09;;;29.91;50.28
13593;BME280;6867;50.998;4.250;2022-08-19T12:10:34;101055.56;;;30.69;48.97
13593;BME280;6867;50.998;4.250;2022-08-19T12:13:01;101028.88;;;30.86;47.95
13593;BME280;6867;50.998;4.250;2022-08-19T12:15:28;101034.97;;;30.79;48.33
13593;BME280;6867;50.998;4.250;2022-08-19T12:17:56;101037.19;;;31.07;47.62
13593;BME280;6867;50.998;4.250;2022-08-19T12:20:24;101022.28;;;31.11;47.66
13593;BME280;6867;50.998;4.250;2022-08-19T12:22:51;101043.53;;;30.65;48.38
13593;BME280;6867;50.998;4.250;2022-08-19T12:25:18;101058.94;;;29.69;49.92
13593;BME280;6867;50.998;4.250;2022-08-19T12:27:46;101091.72;;;28.40;52.28
13593;BME280;6867;50.998;4.250;2022-08-19T12:30:13;101111.50;;;28.91;52.77
13593;BME280;6867;50.998;4.250;2022-08-19T12:32:40;101110.25;;;29.06;52.74
13593;BME280;6867;50.998;4.250;2022-08-19T12:35:09;101113.63;;;28.85;53.39
13593;BME280;6867;50.998;4.250;2022-08-19T12:37:37;101139.66;;;28.44;54.84
13593;BME280;6867;50.998;4.250;2022-08-19T12:40:04;101128.91;;;28.91;54.23
13593;BME280;6867;50.998;4.250;2022-08-19T12:42:31;101091.69;;;29.58;51.85
13593;BME280;6867;50.998;4.250;2022-08-19T12:44:58;101072.47;;;29.53;51.75
13593;BME280;6867;50.998;4.250;2022-08-19T12:47:24;101054.00;;;30.30;49.50
13593;BME280;6867;50.998;4.250;2022-08-19T12:49:52;101020.16;;;30.45;48.82
13593;BME280;6867;50.998;4.250;2022-08-19T12:52:22;101038.28;;;30.64;49.04
13593;BME280;6867;50.998;4.250;2022-08-19T12:54:50;100996.09;;;30.58;47.67
13593;BME280;6867;50.998;4.250;2022-08-19T12:57:17;101034.00;;;30.96;48.10
13593;BME280;6867;50.998;4.250;2022-08-19T12:59:43;100978.25;;;30.68;46.86
13593;BME280;6867;50.998;4.250;2022-08-19T13:02:10;101027.66;;;30.74;48.13
13593;BME280;6867;50.998;4.250;2022-08-19T13:04:37;100992.25;;;31.59;46.55
13593;BME280;6867;50.998;4.250;2022-08-19T13:07:06;100959.13;;;31.99;45.03